Berwick-upon-Tweed, United Kingdom
Current Conditions -  °F | °C
As of 9:50 AM on Wednesday 28 Jan 2015 (Local Time) from EGQM Reporting Station
Broken Clouds Broken Clouds  
Wind Chill: 30°   Ceiling: 6000
Heat Index: 41°   Visibility: 6mi
Dew Point: 34°   Wind: 26mph
Humidity: 76%   Direction: 270°W
Pressure: 29.18"   Gusts: 38mph
Location:  55.78°N, 2°W
Report Text: EGQM 280950Z AUTO 27023G33KT 9999 BKN060/// 05/01 Q0988 RERA
Loading
Personal Weather Stations






























Interactive Weather Map New forecast layout! Learn more

10-Day Weather Forecast

Advertisements
Track Severe Weather on mobile